sensor_id;sensor_type;location;lat;lon;timestamp;temperature;humidity
33881;DHT22;20172;47.530;10.256;2023-12-22T00:02:44;7.90;99.90
33881;DHT22;20172;47.530;10.256;2023-12-22T00:05:44;7.90;99.90
33881;DHT22;20172;47.530;10.256;2023-12-22T00:08:49;8.00;99.90
33881;DHT22;20172;47.530;10.256;2023-12-22T00:11:24;8.00;99.90
33881;DHT22;20172;47.530;10.256;2023-12-22T00:14:07;8.10;99.90
33881;DHT22;20172;47.530;10.256;2023-12-22T00:16:37;8.20;99.90
33881;DHT22;20172;47.530;10.256;2023-12-22T00:19:07;8.10;99.90
33881;DHT22;20172;47.530;10.256;2023-12-22T00:21:54;8.20;99.90
33881;DHT22;20172;47.530;10.256;2023-12-22T00:24:45;8.10;99.90
33881;DHT22;20172;47.530;10.256;2023-12-22T00:27:16;8.10;99.90
33881;DHT22;20172;47.530;10.256;2023-12-22T00:30:00;8.10;99.90
33881;DHT22;20172;47.530;10.256;2023-12-22T00:32:29;8.20;99.90
33881;DHT22;20172;47.530;10.256;2023-12-22T00:35:18;8.20;99.90
33881;DHT22;20172;47.530;10.256;2023-12-22T00:41:00;8.10;99.90
33881;DHT22;20172;47.530;10.256;2023-12-22T00:43:29;8.10;99.90
33881;DHT22;20172;47.530;10.256;2023-12-22T00:46:38;8.20;99.90
33881;DHT22;20172;47.530;10.256;2023-12-22T00:49:38;8.20;99.90
33881;DHT22;20172;47.530;10.256;2023-12-22T00:52:09;8.20;99.90
33881;DHT22;20172;47.530;10.256;2023-12-22T00:55:01;8.10;99.90
33881;DHT22;20172;47.530;10.256;2023-12-22T00:57:52;8.20;99.90
33881;DHT22;20172;47.530;10.256;2023-12-22T01:00:20;8.10;99.90
33881;DHT22;20172;47.530;10.256;2023-12-22T01:02:53;8.20;99.90
33881;DHT22;20172;47.530;10.256;2023-12-22T01:05:27;8.20;99.90
33881;DHT22;20172;47.530;10.256;2023-12-22T01:08:00;8.10;99.90
33881;DHT22;20172;47.530;10.256;2023-12-22T01:10:54;8.00;99.90
33881;DHT22;20172;47.530;10.256;2023-12-22T01:13:29;8.00;99.90
33881;DHT22;20172;47.530;10.256;2023-12-22T01:16:05;8.10;99.90
33881;DHT22;20172;47.530;10.256;2023-12-22T01:18:51;8.00;99.90
33881;DHT22;20172;47.530;10.256;2023-12-22T01:21:32;7.90;99.90
33881;DHT22;20172;47.530;10.256;2023-12-22T01:24:08;7.90;99.90
33881;DHT22;20172;47.530;10.256;2023-12-22T01:27:24;7.90;99.90
33881;DHT22;20172;47.530;10.256;2023-12-22T01:29:59;7.90;99.90
33881;DHT22;20172;47.530;10.256;2023-12-22T01:32:34;7.90;99.90
33881;DHT22;20172;47.530;10.256;2023-12-22T01:38:43;7.80;99.90
33881;DHT22;20172;47.530;10.256;2023-12-22T01:41:09;7.70;99.90
33881;DHT22;20172;47.530;10.256;2023-12-22T01:43:36;7.70;99.90
33881;DHT22;20172;47.530;10.256;2023-12-22T01:46:03;7.70;99.90
33881;DHT22;20172;47.530;10.256;2023-12-22T01:48:31;7.70;99.90
33881;DHT22;20172;47.530;10.256;2023-12-22T01:50:58;7.60;99.90
33881;DHT22;20172;47.530;10.256;2023-12-22T01:53:26;7.60;99.90
33881;DHT22;20172;47.530;10.256;2023-12-22T01:55:53;7.70;99.90
33881;DHT22;20172;47.530;10.256;2023-12-22T01:58:26;7.70;99.90
33881;DHT22;20172;47.530;10.256;2023-12-22T02:01:11;7.70;99.90
33881;DHT22;20172;47.530;10.256;2023-12-22T02:03:43;7.70;99.90
33881;DHT22;20172;47.530;10.256;2023-12-22T02:06:19;7.80;99.90
33881;DHT22;20172;47.530;10.256;2023-12-22T02:08:49;7.80;99.90
33881;DHT22;20172;47.530;10.256;2023-12-22T02:11:25;7.70;99.90
33881;DHT22;20172;47.530;10.256;2023-12-22T02:13:51;7.70;99.90
33881;DHT22;20172;47.530;10.256;2023-12-22T02:19:15;7.80;99.90
33881;DHT22;20172;47.530;10.256;2023-12-22T02:22:09;7.80;99.90
33881;DHT22;20172;47.530;10.256;2023-12-22T02:24:41;7.80;99.90
33881;DHT22;20172;47.530;10.256;2023-12-22T02:30:13;7.80;99.90
33881;DHT22;20172;47.530;10.256;2023-12-22T02:33:29;7.80;99.90
33881;DHT22;20172;47.530;10.256;2023-12-22T02:36:07;7.70;99.90
33881;DHT22;20172;47.530;10.256;2023-12-22T02:38:38;7.80;99.90
33881;DHT22;20172;47.530;10.256;2023-12-22T02:41:08;7.80;99.90
33881;DHT22;20172;47.530;10.256;2023-12-22T02:43:54;7.70;99.90
33881;DHT22;20172;47.530;10.256;2023-12-22T02:46:23;7.80;99.90
33881;DHT22;20172;47.530;10.256;2023-12-22T02:48:49;7.80;99.90
33881;DHT22;20172;47.530;10.256;2023-12-22T02:51:15;7.90;99.90
33881;DHT22;20172;47.530;10.256;2023-12-22T02:53:43;7.90;99.90
33881;DHT22;20172;47.530;10.256;2023-12-22T02:56:31;7.80;99.90
33881;DHT22;20172;47.530;10.256;2023-12-22T02:59:01;7.80;99.90
33881;DHT22;20172;47.530;10.256;2023-12-22T03:01:53;7.80;99.90
33881;DHT22;20172;47.530;10.256;2023-12-22T03:04:22;7.80;99.90
33881;DHT22;20172;47.530;10.256;2023-12-22T03:10:04;7.90;99.90
33881;DHT22;20172;47.530;10.256;2023-12-22T03:12:33;7.90;99.90
33881;DHT22;20172;47.530;10.256;2023-12-22T03:14:59;7.90;99.90
33881;DHT22;20172;47.530;10.256;2023-12-22T03:17:26;7.70;99.90
33881;DHT22;20172;47.530;10.256;2023-12-22T03:20:13;7.70;99.90
33881;DHT22;20172;47.530;10.256;2023-12-22T03:22:40;7.70;99.90
33881;DHT22;20172;47.530;10.256;2023-12-22T03:25:11;7.70;99.90
33881;DHT22;20172;47.530;10.256;2023-12-22T03:27:43;7.80;99.90
33881;DHT22;20172;47.530;10.256;2023-12-22T03:30:23;7.80;99.90
33881;DHT22;20172;47.530;10.256;2023-12-22T03:33:15;7.90;99.90
33881;DHT22;20172;47.530;10.256;2023-12-22T03:35:42;7.80;99.90
33881;DHT22;20172;47.530;10.256;2023-12-22T03:38:14;7.50;99.90
33881;DHT22;20172;47.530;10.256;2023-12-22T03:40:40;7.50;99.90
33881;DHT22;20172;47.530;10.256;2023-12-22T03:43:06;7.50;99.90
33881;DHT22;20172;47.530;10.256;2023-12-22T03:45:32;7.40;99.90
33881;DHT22;20172;47.530;10.256;2023-12-22T03:47:58;7.50;99.90
33881;DHT22;20172;47.530;10.256;2023-12-22T03:50:24;7.50;99.90
33881;DHT22;20172;47.530;10.256;2023-12-22T03:52:57;7.50;99.90
33881;DHT22;20172;47.530;10.256;2023-12-22T03:55:48;7.60;99.90
33881;DHT22;20172;47.530;10.256;2023-12-22T03:58:14;7.50;99.90
33881;DHT22;20172;47.530;10.256;2023-12-22T04:00:52;7.60;99.90
33881;DHT22;20172;47.530;10.256;2023-12-22T04:03:18;7.50;99.90
33881;DHT22;20172;47.530;10.256;2023-12-22T04:05:43;7.40;99.90
33881;DHT22;20172;47.530;10.256;2023-12-22T04:08:10;7.40;99.90
33881;DHT22;20172;47.530;10.256;2023-12-22T04:10:37;7.40;99.90
33881;DHT22;20172;47.530;10.256;2023-12-22T04:13:05;7.40;99.90
33881;DHT22;20172;47.530;10.256;2023-12-22T04:15:31;7.00;99.90
33881;DHT22;20172;47.530;10.256;2023-12-22T04:17:59;7.00;99.90
33881;DHT22;20172;47.530;10.256;2023-12-22T04:20:33;7.00;99.90
33881;DHT22;20172;47.530;10.256;2023-12-22T04:23:03;7.10;99.90
33881;DHT22;20172;47.530;10.256;2023-12-22T04:25:32;7.20;99.90
33881;DHT22;20172;47.530;10.256;2023-12-22T04:28:00;7.20;99.90
33881;DHT22;20172;47.530;10.256;2023-12-22T04:30:29;7.20;99.90
33881;DHT22;20172;47.530;10.256;2023-12-22T04:32:58;7.30;99.90
33881;DHT22;20172;47.530;10.256;2023-12-22T04:35:25;7.30;99.90
33881;DHT22;20172;47.530;10.256;2023-12-22T04:37:51;7.30;99.90
33881;DHT22;20172;47.530;10.256;2023-12-22T04:40:37;7.30;99.90
33881;DHT22;20172;47.530;10.256;2023-12-22T04:43:07;7.30;99.90
33881;DHT22;20172;47.530;10.256;2023-12-22T04:45:33;7.20;99.90
33881;DHT22;20172;47.530;10.256;2023-12-22T04:48:24;7.20;99.90
33881;DHT22;20172;47.530;10.256;2023-12-22T04:50:50;7.10;99.90
33881;DHT22;20172;47.530;10.256;2023-12-22T04:53:15;7.10;99.90
33881;DHT22;20172;47.530;10.256;2023-12-22T04:55:46;7.10;99.90
33881;DHT22;20172;47.530;10.256;2023-12-22T04:58:27;7.20;99.90
33881;DHT22;20172;47.530;10.256;2023-12-22T05:00:56;7.20;99.90
33881;DHT22;20172;47.530;10.256;2023-12-22T05:03:21;7.20;99.90
33881;DHT22;20172;47.530;10.256;2023-12-22T05:05:49;7.20;99.90
33881;DHT22;20172;47.530;10.256;2023-12-22T05:08:15;7.10;99.90
33881;DHT22;20172;47.530;10.256;2023-12-22T05:10:43;7.30;99.90
33881;DHT22;20172;47.530;10.256;2023-12-22T05:13:10;7.30;99.90
33881;DHT22;20172;47.530;10.256;2023-12-22T05:15:36;7.40;99.90
33881;DHT22;20172;47.530;10.256;2023-12-22T05:18:02;7.30;99.90
33881;DHT22;20172;47.530;10.256;2023-12-22T05:20:47;7.40;99.90
33881;DHT22;20172;47.530;10.256;2023-12-22T05:23:17;7.40;99.90
33881;DHT22;20172;47.530;10.256;2023-12-22T05:25:43;7.40;99.90
33881;DHT22;20172;47.530;10.256;2023-12-22T05:28:09;7.40;99.90
33881;DHT22;20172;47.530;10.256;2023-12-22T05:30:36;7.30;99.90
33881;DHT22;20172;47.530;10.256;2023-12-22T05:33:02;7.30;99.90
33881;DHT22;20172;47.530;10.256;2023-12-22T05:35:27;7.30;99.90
33881;DHT22;20172;47.530;10.256;2023-12-22T05:37:53;7.30;99.90
33881;DHT22;20172;47.530;10.256;2023-12-22T05:40:18;7.20;99.90
33881;DHT22;20172;47.530;10.256;2023-12-22T05:42:46;7.40;99.90
33881;DHT22;20172;47.530;10.256;2023-12-22T05:45:14;7.40;99.90
33881;DHT22;20172;47.530;10.256;2023-12-22T05:47:45;7.50;99.90
33881;DHT22;20172;47.530;10.256;2023-12-22T05:50:13;7.60;99.90
33881;DHT22;20172;47.530;10.256;2023-12-22T05:52:39;7.60;99.90
33881;DHT22;20172;47.530;10.256;2023-12-22T05:55:04;7.60;99.90
33881;DHT22;20172;47.530;10.256;2023-12-22T05:57:30;7.50;99.90
33881;DHT22;20172;47.530;10.256;2023-12-22T05:59:56;7.60;99.90
33881;DHT22;20172;47.530;10.256;2023-12-22T06:02:22;7.60;99.90
33881;DHT22;20172;47.530;10.256;2023-12-22T06:04:47;7.60;99.90
33881;DHT22;20172;47.530;10.256;2023-12-22T06:07:16;7.60;99.90
33881;DHT22;20172;47.530;10.256;2023-12-22T06:09:43;7.40;99.90
33881;DHT22;20172;47.530;10.256;2023-12-22T06:12:08;7.40;99.90
33881;DHT22;20172;47.530;10.256;2023-12-22T06:14:34;7.40;99.90
33881;DHT22;20172;47.530;10.256;2023-12-22T06:17:00;7.50;99.90
33881;DHT22;20172;47.530;10.256;2023-12-22T06:19:26;7.50;99.90
33881;DHT22;20172;47.530;10.256;2023-12-22T06:21:53;7.30;99.90
33881;DHT22;20172;47.530;10.256;2023-12-22T06:24:19;7.50;99.90
33881;DHT22;20172;47.530;10.256;2023-12-22T06:26:45;7.50;99.90
33881;DHT22;20172;47.530;10.256;2023-12-22T06:29:10;7.50;99.90
33881;DHT22;20172;47.530;10.256;2023-12-22T06:31:36;7.50;99.90
33881;DHT22;20172;47.530;10.256;2023-12-22T06:34:01;7.50;99.90
33881;DHT22;20172;47.530;10.256;2023-12-22T06:36:27;7.50;99.90
33881;DHT22;20172;47.530;10.256;2023-12-22T06:38:53;7.50;99.90
33881;DHT22;20172;47.530;10.256;2023-12-22T06:41:29;7.60;99.90
33881;DHT22;20172;47.530;10.256;2023-12-22T06:43:56;7.60;99.90
33881;DHT22;20172;47.530;10.256;2023-12-22T06:46:26;7.60;99.90
33881;DHT22;20172;47.530;10.256;2023-12-22T06:48:51;7.50;99.90
33881;DHT22;20172;47.530;10.256;2023-12-22T06:53:44;7.40;99.90
33881;DHT22;20172;47.530;10.256;2023-12-22T06:56:17;7.40;99.90
33881;DHT22;20172;47.530;10.256;2023-12-22T06:58:43;7.50;99.90
33881;DHT22;20172;47.530;10.256;2023-12-22T07:01:12;7.50;99.90
33881;DHT22;20172;47.530;10.256;2023-12-22T07:03:37;7.50;99.90
33881;DHT22;20172;47.530;10.256;2023-12-22T07:06:11;7.50;99.90
33881;DHT22;20172;47.530;10.256;2023-12-22T07:08:37;7.50;99.90
33881;DHT22;20172;47.530;10.256;2023-12-22T07:11:02;7.60;99.90
33881;DHT22;20172;47.530;10.256;2023-12-22T07:13:30;7.50;99.90
33881;DHT22;20172;47.530;10.256;2023-12-22T07:15:59;7.40;99.90
33881;DHT22;20172;47.530;10.256;2023-12-22T07:18:24;7.40;99.90
33881;DHT22;20172;47.530;10.256;2023-12-22T07:20:57;7.40;99.90
33881;DHT22;20172;47.530;10.256;2023-12-22T07:23:23;7.20;99.90
33881;DHT22;20172;47.530;10.256;2023-12-22T07:25:50;7.30;99.90
33881;DHT22;20172;47.530;10.256;2023-12-22T07:28:16;7.30;99.90
33881;DHT22;20172;47.530;10.256;2023-12-22T07:30:43;7.40;99.90
33881;DHT22;20172;47.530;10.256;2023-12-22T07:33:09;7.50;99.90
33881;DHT22;20172;47.530;10.256;2023-12-22T07:35:41;7.40;99.90
33881;DHT22;20172;47.530;10.256;2023-12-22T07:38:12;7.30;99.90
33881;DHT22;20172;47.530;10.256;2023-12-22T07:40:39;7.30;99.90
33881;DHT22;20172;47.530;10.256;2023-12-22T07:43:05;7.30;99.90
33881;DHT22;20172;47.530;10.256;2023-12-22T07:45:30;7.30;99.90
33881;DHT22;20172;47.530;10.256;2023-12-22T07:47:56;7.30;99.90
33881;DHT22;20172;47.530;10.256;2023-12-22T07:50:22;7.20;99.90
33881;DHT22;20172;47.530;10.256;2023-12-22T07:52:47;7.20;99.90
33881;DHT22;20172;47.530;10.256;2023-12-22T07:55:14;7.20;99.90
33881;DHT22;20172;47.530;10.256;2023-12-22T07:57:39;7.20;99.90
33881;DHT22;20172;47.530;10.256;2023-12-22T08:00:06;7.10;99.90
33881;DHT22;20172;47.530;10.256;2023-12-22T08:02:42;6.90;99.90
33881;DHT22;20172;47.530;10.256;2023-12-22T08:05:08;6.90;99.90
33881;DHT22;20172;47.530;10.256;2023-12-22T08:07:36;7.00;99.90
33881;DHT22;20172;47.530;10.256;2023-12-22T08:10:03;7.00;99.90
33881;DHT22;20172;47.530;10.256;2023-12-22T08:12:29;7.00;99.90
33881;DHT22;20172;47.530;10.256;2023-12-22T08:14:57;7.10;99.90
33881;DHT22;20172;47.530;10.256;2023-12-22T08:17:22;7.20;99.90
33881;DHT22;20172;47.530;10.256;2023-12-22T08:19:48;7.10;99.90
33881;DHT22;20172;47.530;10.256;2023-12-22T08:22:13;7.10;99.90
33881;DHT22;20172;47.530;10.256;2023-12-22T08:24:39;7.00;99.90
33881;DHT22;20172;47.530;10.256;2023-12-22T08:27:05;7.10;99.90
33881;DHT22;20172;47.530;10.256;2023-12-22T08:29:32;7.20;99.90
33881;DHT22;20172;47.530;10.256;2023-12-22T08:31:57;7.20;99.90
33881;DHT22;20172;47.530;10.256;2023-12-22T08:34:23;7.30;99.90
33881;DHT22;20172;47.530;10.256;2023-12-22T08:37:06;7.30;99.90
33881;DHT22;20172;47.530;10.256;2023-12-22T08:39:32;7.30;99.90
33881;DHT22;20172;47.530;10.256;2023-12-22T08:41:58;7.30;99.90
33881;DHT22;20172;47.530;10.256;2023-12-22T08:44:28;7.40;99.90
33881;DHT22;20172;47.530;10.256;2023-12-22T08:47:03;7.30;99.90
33881;DHT22;20172;47.530;10.256;2023-12-22T08:49:53;7.30;99.90
33881;DHT22;20172;47.530;10.256;2023-12-22T08:52:30;7.40;99.90
33881;DHT22;20172;47.530;10.256;2023-12-22T08:54:56;7.30;99.90
33881;DHT22;20172;47.530;10.256;2023-12-22T08:57:43;7.20;99.90
33881;DHT22;20172;47.530;10.256;2023-12-22T09:00:10;7.20;99.90
33881;DHT22;20172;47.530;10.256;2023-12-22T09:02:53;7.20;99.90
33881;DHT22;20172;47.530;10.256;2023-12-22T09:05:32;7.30;99.90
33881;DHT22;20172;47.530;10.256;2023-12-22T09:08:00;7.30;99.90
33881;DHT22;20172;47.530;10.256;2023-12-22T09:10:25;7.30;99.90
33881;DHT22;20172;47.530;10.256;2023-12-22T09:12:51;7.40;99.90
33881;DHT22;20172;47.530;10.256;2023-12-22T09:15:16;7.30;99.90
33881;DHT22;20172;47.530;10.256;2023-12-22T09:17:43;7.30;99.90
33881;DHT22;20172;47.530;10.256;2023-12-22T09:20:08;7.30;99.90
33881;DHT22;20172;47.530;10.256;2023-12-22T09:22:34;7.30;99.90
33881;DHT22;20172;47.530;10.256;2023-12-22T09:25:03;7.30;99.90
33881;DHT22;20172;47.530;10.256;2023-12-22T09:27:29;7.40;99.90
33881;DHT22;20172;47.530;10.256;2023-12-22T09:29:56;7.40;99.90
33881;DHT22;20172;47.530;10.256;2023-12-22T09:32:21;7.40;99.90
33881;DHT22;20172;47.530;10.256;2023-12-22T09:34:50;7.40;99.90
33881;DHT22;20172;47.530;10.256;2023-12-22T09:37:16;7.40;99.90
33881;DHT22;20172;47.530;10.256;2023-12-22T09:39:41;7.40;99.90
33881;DHT22;20172;47.530;10.256;2023-12-22T09:42:07;7.40;99.90
33881;DHT22;20172;47.530;10.256;2023-12-22T09:44:32;7.40;99.90
33881;DHT22;20172;47.530;10.256;2023-12-22T09:46:59;7.40;99.90
33881;DHT22;20172;47.530;10.256;2023-12-22T09:49:25;7.30;99.90
33881;DHT22;20172;47.530;10.256;2023-12-22T09:51:52;7.30;99.90
33881;DHT22;20172;47.530;10.256;2023-12-22T09:54:23;7.40;99.90
33881;DHT22;20172;47.530;10.256;2023-12-22T09:56:51;7.40;99.90
33881;DHT22;20172;47.530;10.256;2023-12-22T09:59:31;7.50;99.90
33881;DHT22;20172;47.530;10.256;2023-12-22T10:02:09;7.50;99.90
33881;DHT22;20172;47.530;10.256;2023-12-22T10:04:56;7.50;99.90
33881;DHT22;20172;47.530;10.256;2023-12-22T10:07:22;7.50;99.90
33881;DHT22;20172;47.530;10.256;2023-12-22T10:09:48;7.50;99.90
33881;DHT22;20172;47.530;10.256;2023-12-22T10:12:15;7.40;99.90
33881;DHT22;20172;47.530;10.256;2023-12-22T10:14:40;7.30;99.90
33881;DHT22;20172;47.530;10.256;2023-12-22T10:17:06;7.30;99.90
33881;DHT22;20172;47.530;10.256;2023-12-22T10:19:32;7.30;99.90
33881;DHT22;20172;47.530;10.256;2023-12-22T10:21:57;7.30;99.90
33881;DHT22;20172;47.530;10.256;2023-12-22T10:24:39;7.30;99.90
33881;DHT22;20172;47.530;10.256;2023-12-22T10:27:05;7.40;99.90
33881;DHT22;20172;47.530;10.256;2023-12-22T10:29:31;7.40;99.90
33881;DHT22;20172;47.530;10.256;2023-12-22T10:31:57;7.40;99.90
33881;DHT22;20172;47.530;10.256;2023-12-22T10:34:23;7.40;99.90
33881;DHT22;20172;47.530;10.256;2023-12-22T10:36:49;7.40;99.90
33881;DHT22;20172;47.530;10.256;2023-12-22T10:39:17;7.50;99.90
33881;DHT22;20172;47.530;10.256;2023-12-22T10:41:43;7.50;99.90
33881;DHT22;20172;47.530;10.256;2023-12-22T10:44:09;7.50;99.90
33881;DHT22;20172;47.530;10.256;2023-12-22T10:46:34;7.50;99.90
33881;DHT22;20172;47.530;10.256;2023-12-22T10:49:01;7.50;99.90
33881;DHT22;20172;47.530;10.256;2023-12-22T10:51:28;7.50;99.90
33881;DHT22;20172;47.530;10.256;2023-12-22T10:53:57;7.50;99.90
33881;DHT22;20172;47.530;10.256;2023-12-22T10:56:23;7.40;99.90
33881;DHT22;20172;47.530;10.256;2023-12-22T10:58:53;7.50;99.90
33881;DHT22;20172;47.530;10.256;2023-12-22T11:01:20;7.50;99.90
33881;DHT22;20172;47.530;10.256;2023-12-22T11:03:48;7.50;99.90
33881;DHT22;20172;47.530;10.256;2023-12-22T11:06:15;7.40;99.90
33881;DHT22;20172;47.530;10.256;2023-12-22T11:08:41;7.50;99.90
33881;DHT22;20172;47.530;10.256;2023-12-22T11:11:12;7.50;99.90
33881;DHT22;20172;47.530;10.256;2023-12-22T11:13:39;7.40;99.90
33881;DHT22;20172;47.530;10.256;2023-12-22T11:16:05;7.30;99.90
33881;DHT22;20172;47.530;10.256;2023-12-22T11:18:31;7.30;99.90
33881;DHT22;20172;47.530;10.256;2023-12-22T11:20:58;7.30;99.90
33881;DHT22;20172;47.530;10.256;2023-12-22T11:23:24;7.40;99.90
33881;DHT22;20172;47.530;10.256;2023-12-22T11:25:50;7.40;99.90
33881;DHT22;20172;47.530;10.256;2023-12-22T11:28:19;7.50;99.90
33881;DHT22;20172;47.530;10.256;2023-12-22T11:30:48;7.50;99.90
33881;DHT22;20172;47.530;10.256;2023-12-22T11:33:16;7.50;99.90
33881;DHT22;20172;47.530;10.256;2023-12-22T11:35:41;7.50;99.90
33881;DHT22;20172;47.530;10.256;2023-12-22T11:38:08;7.50;99.90
33881;DHT22;20172;47.530;10.256;2023-12-22T11:40:35;7.50;99.90
33881;DHT22;20172;47.530;10.256;2023-12-22T11:43:00;7.30;99.90
33881;DHT22;20172;47.530;10.256;2023-12-22T11:45:29;7.40;99.90
33881;DHT22;20172;47.530;10.256;2023-12-22T11:47:55;7.30;99.90
33881;DHT22;20172;47.530;10.256;2023-12-22T11:50:30;7.40;99.90
33881;DHT22;20172;47.530;10.256;2023-12-22T11:52:55;7.30;99.90
33881;DHT22;20172;47.530;10.256;2023-12-22T11:59:06;7.20;99.90
33881;DHT22;20172;47.530;10.256;2023-12-22T12:01:07;7.20;99.90
33881;DHT22;20172;47.530;10.256;2023-12-22T12:03:35;7.20;99.90
33881;DHT22;20172;47.530;10.256;2023-12-22T12:06:11;7.10;99.90
33881;DHT22;20172;47.530;10.256;2023-12-22T12:08:39;7.10;99.90
33881;DHT22;20172;47.530;10.256;2023-12-22T12:11:05;6.90;99.90
33881;DHT22;20172;47.530;10.256;2023-12-22T12:13:32;6.90;99.90
33881;DHT22;20172;47.530;10.256;2023-12-22T12:15:59;6.90;99.90
33881;DHT22;20172;47.530;10.256;2023-12-22T12:18:27;6.90;99.90
33881;DHT22;20172;47.530;10.256;2023-12-22T12:20:52;7.00;99.90
33881;DHT22;20172;47.530;10.256;2023-12-22T12:23:18;7.00;99.90
33881;DHT22;20172;47.530;10.256;2023-12-22T12:25:43;7.00;99.90
33881;DHT22;20172;47.530;10.256;2023-12-22T12:28:09;6.90;99.90
33881;DHT22;20172;47.530;10.256;2023-12-22T12:30:35;6.90;99.90
33881;DHT22;20172;47.530;10.256;2023-12-22T12:33:08;6.80;99.90
33881;DHT22;20172;47.530;10.256;2023-12-22T12:35:33;6.80;99.90
33881;DHT22;20172;47.530;10.256;2023-12-22T12:37:59;6.90;99.90
33881;DHT22;20172;47.530;10.256;2023-12-22T12:40:25;6.80;99.90
33881;DHT22;20172;47.530;10.256;2023-12-22T12:42:55;6.90;99.90
33881;DHT22;20172;47.530;10.256;2023-12-22T12:45:24;7.00;99.90
33881;DHT22;20172;47.530;10.256;2023-12-22T12:50:24;7.20;99.90
33881;DHT22;20172;47.530;10.256;2023-12-22T12:52:49;7.20;99.90
33881;DHT22;20172;47.530;10.256;2023-12-22T12:55:17;7.20;99.90
33881;DHT22;20172;47.530;10.256;2023-12-22T12:57:43;7.30;99.90
33881;DHT22;20172;47.530;10.256;2023-12-22T13:00:09;7.30;99.90
33881;DHT22;20172;47.530;10.256;2023-12-22T13:02:35;7.10;99.90
33881;DHT22;20172;47.530;10.256;2023-12-22T13:05:01;7.00;99.90
33881;DHT22;20172;47.530;10.256;2023-12-22T13:07:29;7.00;99.90
33881;DHT22;20172;47.530;10.256;2023-12-22T13:09:55;7.10;99.90
33881;DHT22;20172;47.530;10.256;2023-12-22T13:12:24;7.00;99.90
33881;DHT22;20172;47.530;10.256;2023-12-22T13:14:51;6.90;99.90
33881;DHT22;20172;47.530;10.256;2023-12-22T13:17:17;6.70;99.90
33881;DHT22;20172;47.530;10.256;2023-12-22T13:19:42;6.60;99.90
33881;DHT22;20172;47.530;10.256;2023-12-22T13:22:08;6.60;99.90
33881;DHT22;20172;47.530;10.256;2023-12-22T13:24:34;6.80;99.90
33881;DHT22;20172;47.530;10.256;2023-12-22T13:27:00;6.80;99.90
33881;DHT22;20172;47.530;10.256;2023-12-22T13:29:27;6.90;99.90
33881;DHT22;20172;47.530;10.256;2023-12-22T13:31:53;6.80;99.90
33881;DHT22;20172;47.530;10.256;2023-12-22T13:34:19;6.80;99.90
33881;DHT22;20172;47.530;10.256;2023-12-22T13:36:45;6.90;99.90
33881;DHT22;20172;47.530;10.256;2023-12-22T13:39:10;6.90;99.90
33881;DHT22;20172;47.530;10.256;2023-12-22T13:41:38;7.00;99.90
33881;DHT22;20172;47.530;10.256;2023-12-22T13:44:06;7.00;99.90
33881;DHT22;20172;47.530;10.256;2023-12-22T13:46:32;7.00;99.90
33881;DHT22;20172;47.530;10.256;2023-12-22T13:49:01;7.00;99.90
33881;DHT22;20172;47.530;10.256;2023-12-22T13:51:27;7.00;99.90
33881;DHT22;20172;47.530;10.256;2023-12-22T13:53:52;7.00;99.90
33881;DHT22;20172;47.530;10.256;2023-12-22T13:56:18;7.00;99.90
33881;DHT22;20172;47.530;10.256;2023-12-22T13:58:47;7.00;99.90
33881;DHT22;20172;47.530;10.256;2023-12-22T14:01:13;6.90;99.90
33881;DHT22;20172;47.530;10.256;2023-12-22T14:03:39;6.90;99.90
33881;DHT22;20172;47.530;10.256;2023-12-22T14:06:05;6.90;99.90
33881;DHT22;20172;47.530;10.256;2023-12-22T14:08:34;6.90;99.90
33881;DHT22;20172;47.530;10.256;2023-12-22T14:11:03;6.90;99.90
33881;DHT22;20172;47.530;10.256;2023-12-22T14:13:28;7.00;99.90
33881;DHT22;20172;47.530;10.256;2023-12-22T14:15:54;7.10;99.90
33881;DHT22;20172;47.530;10.256;2023-12-22T14:18:19;7.10;99.90
33881;DHT22;20172;47.530;10.256;2023-12-22T14:20:45;7.00;99.90
33881;DHT22;20172;47.530;10.256;2023-12-22T14:23:11;7.00;99.90
33881;DHT22;20172;47.530;10.256;2023-12-22T14:25:44;7.00;99.90
33881;DHT22;20172;47.530;10.256;2023-12-22T14:28:10;7.00;99.90
33881;DHT22;20172;47.530;10.256;2023-12-22T14:30:35;7.10;99.90
33881;DHT22;20172;47.530;10.256;2023-12-22T14:33:01;7.20;99.90
33881;DHT22;20172;47.530;10.256;2023-12-22T14:35:26;7.10;99.90
33881;DHT22;20172;47.530;10.256;2023-12-22T14:37:52;7.10;99.90
33881;DHT22;20172;47.530;10.256;2023-12-22T14:40:18;7.10;99.90
33881;DHT22;20172;47.530;10.256;2023-12-22T14:42:43;7.10;99.90
33881;DHT22;20172;47.530;10.256;2023-12-22T14:45:09;7.00;99.90
33881;DHT22;20172;47.530;10.256;2023-12-22T14:47:34;7.10;99.90
33881;DHT22;20172;47.530;10.256;2023-12-22T14:50:01;7.10;99.90
33881;DHT22;20172;47.530;10.256;2023-12-22T14:52:29;7.10;99.90
33881;DHT22;20172;47.530;10.256;2023-12-22T14:54:59;7.20;99.90
33881;DHT22;20172;47.530;10.256;2023-12-22T14:57:29;7.20;99.90
33881;DHT22;20172;47.530;10.256;2023-12-22T14:59:55;7.20;99.90
33881;DHT22;20172;47.530;10.256;2023-12-22T15:02:21;7.10;99.90
33881;DHT22;20172;47.530;10.256;2023-12-22T15:04:46;7.00;99.90
33881;DHT22;20172;47.530;10.256;2023-12-22T15:07:18;7.10;99.90
33881;DHT22;20172;47.530;10.256;2023-12-22T15:09:44;7.20;99.90
33881;DHT22;20172;47.530;10.256;2023-12-22T15:12:11;7.20;99.90
33881;DHT22;20172;47.530;10.256;2023-12-22T15:14:37;7.20;99.90
33881;DHT22;20172;47.530;10.256;2023-12-22T15:17:02;7.20;99.90
33881;DHT22;20172;47.530;10.256;2023-12-22T15:19:28;7.30;99.90
33881;DHT22;20172;47.530;10.256;2023-12-22T15:21:53;7.30;99.90
33881;DHT22;20172;47.530;10.256;2023-12-22T15:24:20;7.30;99.90
33881;DHT22;20172;47.530;10.256;2023-12-22T15:26:45;7.30;99.90
33881;DHT22;20172;47.530;10.256;2023-12-22T15:29:11;7.30;99.90
33881;DHT22;20172;47.530;10.256;2023-12-22T15:31:36;7.30;99.90
33881;DHT22;20172;47.530;10.256;2023-12-22T15:34:02;7.30;99.90
33881;DHT22;20172;47.530;10.256;2023-12-22T15:36:28;7.30;99.90
33881;DHT22;20172;47.530;10.256;2023-12-22T15:38:54;7.30;99.90
33881;DHT22;20172;47.530;10.256;2023-12-22T15:41:20;7.20;99.90
33881;DHT22;20172;47.530;10.256;2023-12-22T15:43:45;7.20;99.90
33881;DHT22;20172;47.530;10.256;2023-12-22T15:46:11;7.20;99.90
33881;DHT22;20172;47.530;10.256;2023-12-22T15:48:37;7.10;99.90
33881;DHT22;20172;47.530;10.256;2023-12-22T15:51:06;7.20;99.90
33881;DHT22;20172;47.530;10.256;2023-12-22T15:53:31;7.20;99.90
33881;DHT22;20172;47.530;10.256;2023-12-22T15:55:57;7.20;99.90
33881;DHT22;20172;47.530;10.256;2023-12-22T15:58:23;7.30;99.90
33881;DHT22;20172;47.530;10.256;2023-12-22T16:00:49;7.30;99.90
33881;DHT22;20172;47.530;10.256;2023-12-22T16:03:14;7.30;99.90
33881;DHT22;20172;47.530;10.256;2023-12-22T16:05:39;7.40;99.90
33881;DHT22;20172;47.530;10.256;2023-12-22T16:08:05;7.40;99.90
33881;DHT22;20172;47.530;10.256;2023-12-22T16:10:31;7.40;99.90